sensor_id;sensor_type;location;lat;lon;timestamp;temperature;humidity
75321;DHT22;68337;52.196;5.660;2023-05-07T00:01:46;14.50;99.90
75321;DHT22;68337;52.196;5.660;2023-05-07T00:04:11;14.50;99.90
75321;DHT22;68337;52.196;5.660;2023-05-07T00:06:39;14.40;99.90
75321;DHT22;68337;52.196;5.660;2023-05-07T00:09:05;14.40;99.90
75321;DHT22;68337;52.196;5.660;2023-05-07T00:11:32;14.40;99.90
75321;DHT22;68337;52.196;5.660;2023-05-07T00:13:58;14.40;99.90
75321;DHT22;68337;52.196;5.660;2023-05-07T00:16:24;14.40;99.90
75321;DHT22;68337;52.196;5.660;2023-05-07T00:18:49;14.50;99.90
75321;DHT22;68337;52.196;5.660;2023-05-07T00:21:16;14.40;99.90
75321;DHT22;68337;52.196;5.660;2023-05-07T00:23:41;14.40;99.90
75321;DHT22;68337;52.196;5.660;2023-05-07T00:26:07;14.40;99.90
75321;DHT22;68337;52.196;5.660;2023-05-07T00:28:33;14.40;99.90
75321;DHT22;68337;52.196;5.660;2023-05-07T00:30:59;14.40;99.90
75321;DHT22;68337;52.196;5.660;2023-05-07T00:33:25;14.50;99.90
75321;DHT22;68337;52.196;5.660;2023-05-07T00:35:52;14.50;99.90
75321;DHT22;68337;52.196;5.660;2023-05-07T00:38:19;14.40;99.90
75321;DHT22;68337;52.196;5.660;2023-05-07T00:40:45;14.40;99.90
75321;DHT22;68337;52.196;5.660;2023-05-07T00:43:11;14.40;99.90
75321;DHT22;68337;52.196;5.660;2023-05-07T00:45:38;14.40;99.90
75321;DHT22;68337;52.196;5.660;2023-05-07T00:48:04;14.40;99.90
75321;DHT22;68337;52.196;5.660;2023-05-07T00:50:30;14.30;99.90
75321;DHT22;68337;52.196;5.660;2023-05-07T00:52:57;14.30;99.90
75321;DHT22;68337;52.196;5.660;2023-05-07T00:55:23;14.30;99.90
75321;DHT22;68337;52.196;5.660;2023-05-07T00:57:50;14.30;99.90
75321;DHT22;68337;52.196;5.660;2023-05-07T01:00:16;14.20;99.90
75321;DHT22;68337;52.196;5.660;2023-05-07T01:02:44;14.20;99.90
75321;DHT22;68337;52.196;5.660;2023-05-07T01:05:12;14.20;99.90
75321;DHT22;68337;52.196;5.660;2023-05-07T01:07:40;14.20;99.90
75321;DHT22;68337;52.196;5.660;2023-05-07T01:10:08;14.20;99.90
75321;DHT22;68337;52.196;5.660;2023-05-07T01:12:36;14.20;99.90
75321;DHT22;68337;52.196;5.660;2023-05-07T01:15:03;14.10;99.90
75321;DHT22;68337;52.196;5.660;2023-05-07T01:17:36;14.10;99.90
75321;DHT22;68337;52.196;5.660;2023-05-07T01:20:03;14.10;99.90
75321;DHT22;68337;52.196;5.660;2023-05-07T01:22:32;14.00;99.90
75321;DHT22;68337;52.196;5.660;2023-05-07T01:24:58;14.00;99.90
75321;DHT22;68337;52.196;5.660;2023-05-07T01:27:25;13.90;99.90
75321;DHT22;68337;52.196;5.660;2023-05-07T01:29:51;13.90;99.90
75321;DHT22;68337;52.196;5.660;2023-05-07T01:32:19;13.90;99.90
75321;DHT22;68337;52.196;5.660;2023-05-07T01:34:48;13.90;99.90
75321;DHT22;68337;52.196;5.660;2023-05-07T01:37:15;13.80;99.90
75321;DHT22;68337;52.196;5.660;2023-05-07T01:39:42;13.80;99.90
75321;DHT22;68337;52.196;5.660;2023-05-07T01:42:08;13.80;99.90
75321;DHT22;68337;52.196;5.660;2023-05-07T01:44:34;13.80;99.90
75321;DHT22;68337;52.196;5.660;2023-05-07T01:47:01;13.80;99.90
75321;DHT22;68337;52.196;5.660;2023-05-07T01:49:27;13.80;99.90
75321;DHT22;68337;52.196;5.660;2023-05-07T01:51:53;13.80;99.90
75321;DHT22;68337;52.196;5.660;2023-05-07T01:54:19;13.80;99.90
75321;DHT22;68337;52.196;5.660;2023-05-07T01:56:46;13.80;99.90
75321;DHT22;68337;52.196;5.660;2023-05-07T01:59:13;13.80;99.90
75321;DHT22;68337;52.196;5.660;2023-05-07T02:01:39;13.80;99.90
75321;DHT22;68337;52.196;5.660;2023-05-07T02:04:04;13.70;99.90
75321;DHT22;68337;52.196;5.660;2023-05-07T02:06:30;13.70;99.90
75321;DHT22;68337;52.196;5.660;2023-05-07T02:08:56;13.70;99.90
75321;DHT22;68337;52.196;5.660;2023-05-07T02:11:22;13.70;99.90
75321;DHT22;68337;52.196;5.660;2023-05-07T02:13:47;13.70;99.90
75321;DHT22;68337;52.196;5.660;2023-05-07T02:16:13;13.70;99.90
75321;DHT22;68337;52.196;5.660;2023-05-07T02:18:39;13.70;99.90
75321;DHT22;68337;52.196;5.660;2023-05-07T02:21:05;13.70;99.90
75321;DHT22;68337;52.196;5.660;2023-05-07T02:23:31;13.70;99.90
75321;DHT22;68337;52.196;5.660;2023-05-07T02:25:56;13.70;99.90
75321;DHT22;68337;52.196;5.660;2023-05-07T02:28:22;13.70;99.90
75321;DHT22;68337;52.196;5.660;2023-05-07T02:30:48;13.70;99.90
75321;DHT22;68337;52.196;5.660;2023-05-07T02:33:13;13.70;99.90
75321;DHT22;68337;52.196;5.660;2023-05-07T02:35:39;13.70;99.90
75321;DHT22;68337;52.196;5.660;2023-05-07T02:38:05;13.70;99.90
75321;DHT22;68337;52.196;5.660;2023-05-07T02:40:31;13.70;99.90
75321;DHT22;68337;52.196;5.660;2023-05-07T02:42:59;13.70;99.90
75321;DHT22;68337;52.196;5.660;2023-05-07T02:45:25;13.70;99.90
75321;DHT22;68337;52.196;5.660;2023-05-07T02:47:50;13.70;99.90
75321;DHT22;68337;52.196;5.660;2023-05-07T02:50:16;13.70;99.90
75321;DHT22;68337;52.196;5.660;2023-05-07T02:52:42;13.70;99.90
75321;DHT22;68337;52.196;5.660;2023-05-07T02:55:08;13.70;99.90
75321;DHT22;68337;52.196;5.660;2023-05-07T02:57:34;13.70;99.90
75321;DHT22;68337;52.196;5.660;2023-05-07T02:59:59;13.70;99.90
75321;DHT22;68337;52.196;5.660;2023-05-07T03:02:35;13.70;99.90
75321;DHT22;68337;52.196;5.660;2023-05-07T03:05:00;13.70;99.90
75321;DHT22;68337;52.196;5.660;2023-05-07T03:07:27;13.70;99.90
75321;DHT22;68337;52.196;5.660;2023-05-07T03:09:52;13.70;99.90
75321;DHT22;68337;52.196;5.660;2023-05-07T03:12:19;13.70;99.90
75321;DHT22;68337;52.196;5.660;2023-05-07T03:14:44;13.60;99.90
75321;DHT22;68337;52.196;5.660;2023-05-07T03:17:10;13.60;99.90
75321;DHT22;68337;52.196;5.660;2023-05-07T03:19:36;13.60;99.90
75321;DHT22;68337;52.196;5.660;2023-05-07T03:22:01;13.60;99.90
75321;DHT22;68337;52.196;5.660;2023-05-07T03:24:27;13.60;99.90
75321;DHT22;68337;52.196;5.660;2023-05-07T03:26:53;13.60;99.90
75321;DHT22;68337;52.196;5.660;2023-05-07T03:29:18;13.60;99.90
75321;DHT22;68337;52.196;5.660;2023-05-07T03:31:45;13.60;99.90
75321;DHT22;68337;52.196;5.660;2023-05-07T03:34:10;13.60;99.90
75321;DHT22;68337;52.196;5.660;2023-05-07T03:36:36;13.60;99.90
75321;DHT22;68337;52.196;5.660;2023-05-07T03:39:02;13.60;99.90
75321;DHT22;68337;52.196;5.660;2023-05-07T03:41:28;13.60;99.90
75321;DHT22;68337;52.196;5.660;2023-05-07T03:43:55;13.60;99.90
75321;DHT22;68337;52.196;5.660;2023-05-07T03:46:20;13.60;99.90
75321;DHT22;68337;52.196;5.660;2023-05-07T03:48:46;13.60;99.90
75321;DHT22;68337;52.196;5.660;2023-05-07T03:51:12;13.60;99.90
75321;DHT22;68337;52.196;5.660;2023-05-07T03:53:37;13.60;99.90
75321;DHT22;68337;52.196;5.660;2023-05-07T03:56:03;13.60;99.90
75321;DHT22;68337;52.196;5.660;2023-05-07T03:58:29;13.60;99.90
75321;DHT22;68337;52.196;5.660;2023-05-07T04:00:55;13.70;99.90
75321;DHT22;68337;52.196;5.660;2023-05-07T04:03:20;13.60;99.90
75321;DHT22;68337;52.196;5.660;2023-05-07T04:05:46;13.70;99.90
75321;DHT22;68337;52.196;5.660;2023-05-07T04:08:12;13.70;99.90
75321;DHT22;68337;52.196;5.660;2023-05-07T04:10:38;13.70;99.90
75321;DHT22;68337;52.196;5.660;2023-05-07T04:13:03;13.70;99.90
75321;DHT22;68337;52.196;5.660;2023-05-07T04:15:29;13.70;99.90
75321;DHT22;68337;52.196;5.660;2023-05-07T04:17:55;13.80;99.90
75321;DHT22;68337;52.196;5.660;2023-05-07T04:20:20;13.80;99.90
75321;DHT22;68337;52.196;5.660;2023-05-07T04:22:46;13.80;99.90
75321;DHT22;68337;52.196;5.660;2023-05-07T04:25:12;13.80;99.90
75321;DHT22;68337;52.196;5.660;2023-05-07T04:27:37;13.80;99.90
75321;DHT22;68337;52.196;5.660;2023-05-07T04:30:03;13.80;99.90
75321;DHT22;68337;52.196;5.660;2023-05-07T04:32:30;13.90;99.90
75321;DHT22;68337;52.196;5.660;2023-05-07T04:34:58;13.80;99.90
75321;DHT22;68337;52.196;5.660;2023-05-07T04:37:25;13.90;99.90
75321;DHT22;68337;52.196;5.660;2023-05-07T04:39:51;13.90;99.90
75321;DHT22;68337;52.196;5.660;2023-05-07T04:42:17;13.90;99.90
75321;DHT22;68337;52.196;5.660;2023-05-07T04:44:44;13.90;99.90
75321;DHT22;68337;52.196;5.660;2023-05-07T04:47:10;13.90;99.90
75321;DHT22;68337;52.196;5.660;2023-05-07T04:49:37;14.00;99.90
75321;DHT22;68337;52.196;5.660;2023-05-07T04:52:03;14.00;99.90
75321;DHT22;68337;52.196;5.660;2023-05-07T04:54:29;14.00;99.90
75321;DHT22;68337;52.196;5.660;2023-05-07T04:56:55;14.00;99.90
75321;DHT22;68337;52.196;5.660;2023-05-07T04:59:21;14.00;99.90
75321;DHT22;68337;52.196;5.660;2023-05-07T05:01:46;14.10;99.90
75321;DHT22;68337;52.196;5.660;2023-05-07T05:04:12;14.10;99.90
75321;DHT22;68337;52.196;5.660;2023-05-07T05:06:38;14.10;99.90
75321;DHT22;68337;52.196;5.660;2023-05-07T05:09:04;14.10;99.90
75321;DHT22;68337;52.196;5.660;2023-05-07T05:11:31;14.20;99.90
75321;DHT22;68337;52.196;5.660;2023-05-07T05:13:56;14.20;99.90
75321;DHT22;68337;52.196;5.660;2023-05-07T05:16:22;14.20;99.90
75321;DHT22;68337;52.196;5.660;2023-05-07T05:18:48;14.20;99.90
75321;DHT22;68337;52.196;5.660;2023-05-07T05:21:14;14.30;99.90
75321;DHT22;68337;52.196;5.660;2023-05-07T05:23:39;14.30;99.90
75321;DHT22;68337;52.196;5.660;2023-05-07T05:26:05;14.30;99.90
75321;DHT22;68337;52.196;5.660;2023-05-07T05:28:31;14.30;99.90
75321;DHT22;68337;52.196;5.660;2023-05-07T05:30:57;14.30;99.90
75321;DHT22;68337;52.196;5.660;2023-05-07T05:33:22;14.40;99.90
75321;DHT22;68337;52.196;5.660;2023-05-07T05:35:49;14.40;99.90
75321;DHT22;68337;52.196;5.660;2023-05-07T05:38:15;14.50;99.90
75321;DHT22;68337;52.196;5.660;2023-05-07T05:40:41;14.50;99.90
75321;DHT22;68337;52.196;5.660;2023-05-07T05:43:06;14.60;99.90
75321;DHT22;68337;52.196;5.660;2023-05-07T05:45:32;14.60;99.90
75321;DHT22;68337;52.196;5.660;2023-05-07T05:47:58;14.60;99.90
75321;DHT22;68337;52.196;5.660;2023-05-07T05:50:23;14.70;99.90
75321;DHT22;68337;52.196;5.660;2023-05-07T05:52:50;14.80;99.90
75321;DHT22;68337;52.196;5.660;2023-05-07T05:55:16;14.80;99.90
75321;DHT22;68337;52.196;5.660;2023-05-07T05:57:42;14.80;99.90
75321;DHT22;68337;52.196;5.660;2023-05-07T06:00:08;14.80;99.90
75321;DHT22;68337;52.196;5.660;2023-05-07T06:02:34;14.90;99.90
75321;DHT22;68337;52.196;5.660;2023-05-07T06:04:59;14.90;99.90
75321;DHT22;68337;52.196;5.660;2023-05-07T06:07:25;14.90;99.90
75321;DHT22;68337;52.196;5.660;2023-05-07T06:09:51;14.90;99.90
75321;DHT22;68337;52.196;5.660;2023-05-07T06:12:16;14.90;99.90
75321;DHT22;68337;52.196;5.660;2023-05-07T06:14:45;15.10;99.90
75321;DHT22;68337;52.196;5.660;2023-05-07T06:17:11;15.10;99.90
75321;DHT22;68337;52.196;5.660;2023-05-07T06:19:36;15.10;99.90
75321;DHT22;68337;52.196;5.660;2023-05-07T06:22:02;15.20;99.90
75321;DHT22;68337;52.196;5.660;2023-05-07T06:24:28;15.20;99.90
75321;DHT22;68337;52.196;5.660;2023-05-07T06:26:55;15.20;99.90
75321;DHT22;68337;52.196;5.660;2023-05-07T06:29:21;15.20;99.90
75321;DHT22;68337;52.196;5.660;2023-05-07T06:31:47;15.20;99.90
75321;DHT22;68337;52.196;5.660;2023-05-07T06:34:13;15.30;99.90
75321;DHT22;68337;52.196;5.660;2023-05-07T06:36:41;15.30;99.90
75321;DHT22;68337;52.196;5.660;2023-05-07T06:39:07;15.40;99.90
75321;DHT22;68337;52.196;5.660;2023-05-07T06:41:32;15.40;99.90
75321;DHT22;68337;52.196;5.660;2023-05-07T06:43:59;15.40;99.90
75321;DHT22;68337;52.196;5.660;2023-05-07T06:46:25;15.40;99.90
75321;DHT22;68337;52.196;5.660;2023-05-07T06:48:51;15.40;99.90
75321;DHT22;68337;52.196;5.660;2023-05-07T06:51:18;15.50;99.90
75321;DHT22;68337;52.196;5.660;2023-05-07T06:53:43;15.60;99.90
75321;DHT22;68337;52.196;5.660;2023-05-07T06:56:09;15.60;99.90
75321;DHT22;68337;52.196;5.660;2023-05-07T06:58:35;15.70;99.90
75321;DHT22;68337;52.196;5.660;2023-05-07T07:01:00;16.00;99.90
75321;DHT22;68337;52.196;5.660;2023-05-07T07:03:26;16.20;99.90
75321;DHT22;68337;52.196;5.660;2023-05-07T07:05:53;16.40;99.90
75321;DHT22;68337;52.196;5.660;2023-05-07T07:08:18;16.50;99.90
75321;DHT22;68337;52.196;5.660;2023-05-07T07:10:49;16.70;99.90
75321;DHT22;68337;52.196;5.660;2023-05-07T07:13:14;16.70;99.90
75321;DHT22;68337;52.196;5.660;2023-05-07T07:15:40;16.90;99.90
75321;DHT22;68337;52.196;5.660;2023-05-07T07:18:06;16.80;99.90
75321;DHT22;68337;52.196;5.660;2023-05-07T07:20:32;16.90;99.90
75321;DHT22;68337;52.196;5.660;2023-05-07T07:22:58;17.10;99.90
75321;DHT22;68337;52.196;5.660;2023-05-07T07:25:25;17.10;99.90
75321;DHT22;68337;52.196;5.660;2023-05-07T07:27:50;16.80;99.90
75321;DHT22;68337;52.196;5.660;2023-05-07T07:30:16;16.70;99.90
75321;DHT22;68337;52.196;5.660;2023-05-07T07:32:42;16.70;99.90
75321;DHT22;68337;52.196;5.660;2023-05-07T07:35:08;16.70;99.90
75321;DHT22;68337;52.196;5.660;2023-05-07T07:37:37;16.70;99.90
75321;DHT22;68337;52.196;5.660;2023-05-07T07:40:04;16.70;99.90
75321;DHT22;68337;52.196;5.660;2023-05-07T07:42:30;16.60;99.90
75321;DHT22;68337;52.196;5.660;2023-05-07T07:44:56;16.50;99.90
75321;DHT22;68337;52.196;5.660;2023-05-07T07:47:23;16.50;99.90
75321;DHT22;68337;52.196;5.660;2023-05-07T07:49:49;16.50;99.90
75321;DHT22;68337;52.196;5.660;2023-05-07T07:52:15;16.60;99.90
75321;DHT22;68337;52.196;5.660;2023-05-07T07:54:40;16.60;99.90
75321;DHT22;68337;52.196;5.660;2023-05-07T07:57:06;16.60;99.90
75321;DHT22;68337;52.196;5.660;2023-05-07T07:59:32;16.70;99.90
75321;DHT22;68337;52.196;5.660;2023-05-07T08:01:58;16.80;99.90
75321;DHT22;68337;52.196;5.660;2023-05-07T08:04:24;16.90;99.90
75321;DHT22;68337;52.196;5.660;2023-05-07T08:06:49;17.00;99.90
75321;DHT22;68337;52.196;5.660;2023-05-07T08:09:15;16.80;99.90
75321;DHT22;68337;52.196;5.660;2023-05-07T08:11:41;16.80;99.90
75321;DHT22;68337;52.196;5.660;2023-05-07T08:14:07;16.80;99.90
75321;DHT22;68337;52.196;5.660;2023-05-07T08:16:34;16.80;99.90
75321;DHT22;68337;52.196;5.660;2023-05-07T08:19:00;16.80;99.90
75321;DHT22;68337;52.196;5.660;2023-05-07T08:21:26;16.90;99.90
75321;DHT22;68337;52.196;5.660;2023-05-07T08:23:52;17.10;99.90
75321;DHT22;68337;52.196;5.660;2023-05-07T08:26:17;17.20;99.90
75321;DHT22;68337;52.196;5.660;2023-05-07T08:28:43;17.20;99.90
75321;DHT22;68337;52.196;5.660;2023-05-07T08:31:14;17.30;99.90
75321;DHT22;68337;52.196;5.660;2023-05-07T08:33:40;17.20;99.90
75321;DHT22;68337;52.196;5.660;2023-05-07T08:36:06;17.10;99.90
75321;DHT22;68337;52.196;5.660;2023-05-07T08:38:32;16.80;99.90
75321;DHT22;68337;52.196;5.660;2023-05-07T08:40:58;16.40;99.90
75321;DHT22;68337;52.196;5.660;2023-05-07T08:43:26;16.30;99.90
75321;DHT22;68337;52.196;5.660;2023-05-07T08:45:54;16.40;99.90
75321;DHT22;68337;52.196;5.660;2023-05-07T08:48:23;16.30;99.90
75321;DHT22;68337;52.196;5.660;2023-05-07T08:50:51;16.50;99.90
75321;DHT22;68337;52.196;5.660;2023-05-07T08:53:17;16.50;99.90
75321;DHT22;68337;52.196;5.660;2023-05-07T08:55:43;16.60;99.90
75321;DHT22;68337;52.196;5.660;2023-05-07T08:58:08;16.60;99.90
75321;DHT22;68337;52.196;5.660;2023-05-07T09:00:36;16.60;99.90
75321;DHT22;68337;52.196;5.660;2023-05-07T09:03:05;16.80;99.90
75321;DHT22;68337;52.196;5.660;2023-05-07T09:05:32;16.90;99.90
75321;DHT22;68337;52.196;5.660;2023-05-07T09:08:07;16.80;99.90
75321;DHT22;68337;52.196;5.660;2023-05-07T09:10:34;16.70;99.90
75321;DHT22;68337;52.196;5.660;2023-05-07T09:12:59;16.80;99.90
75321;DHT22;68337;52.196;5.660;2023-05-07T09:15:27;16.80;99.90
75321;DHT22;68337;52.196;5.660;2023-05-07T09:17:53;17.00;99.90
75321;DHT22;68337;52.196;5.660;2023-05-07T09:20:19;17.00;99.90
75321;DHT22;68337;52.196;5.660;2023-05-07T09:22:44;17.00;99.90
75321;DHT22;68337;52.196;5.660;2023-05-07T09:25:11;17.10;99.90
75321;DHT22;68337;52.196;5.660;2023-05-07T09:27:38;17.30;99.90
75321;DHT22;68337;52.196;5.660;2023-05-07T09:30:06;17.60;99.90
75321;DHT22;68337;52.196;5.660;2023-05-07T09:32:36;17.90;99.90
75321;DHT22;68337;52.196;5.660;2023-05-07T09:35:03;18.10;99.90
75321;DHT22;68337;52.196;5.660;2023-05-07T09:37:31;18.20;99.90
75321;DHT22;68337;52.196;5.660;2023-05-07T09:39:57;18.40;99.90
75321;DHT22;68337;52.196;5.660;2023-05-07T09:42:24;18.40;99.90
75321;DHT22;68337;52.196;5.660;2023-05-07T09:44:52;18.50;99.90
75321;DHT22;68337;52.196;5.660;2023-05-07T09:47:19;18.50;99.90
75321;DHT22;68337;52.196;5.660;2023-05-07T09:49:48;18.40;99.90
75321;DHT22;68337;52.196;5.660;2023-05-07T09:52:14;18.40;99.90
75321;DHT22;68337;52.196;5.660;2023-05-07T09:54:40;18.40;99.90
75321;DHT22;68337;52.196;5.660;2023-05-07T09:57:10;18.30;99.90
75321;DHT22;68337;52.196;5.660;2023-05-07T09:59:38;18.30;99.90
75321;DHT22;68337;52.196;5.660;2023-05-07T10:02:04;18.40;99.90
75321;DHT22;68337;52.196;5.660;2023-05-07T10:04:31;18.30;99.90
75321;DHT22;68337;52.196;5.660;2023-05-07T10:06:58;18.30;99.90
75321;DHT22;68337;52.196;5.660;2023-05-07T10:09:25;18.30;99.90
75321;DHT22;68337;52.196;5.660;2023-05-07T10:11:52;18.20;99.90
75321;DHT22;68337;52.196;5.660;2023-05-07T10:14:20;18.10;99.90
75321;DHT22;68337;52.196;5.660;2023-05-07T10:16:47;18.00;99.90
75321;DHT22;68337;52.196;5.660;2023-05-07T10:19:14;18.10;99.90
75321;DHT22;68337;52.196;5.660;2023-05-07T10:21:44;18.10;99.90
75321;DHT22;68337;52.196;5.660;2023-05-07T10:24:20;18.20;99.90
75321;DHT22;68337;52.196;5.660;2023-05-07T10:26:49;18.30;99.90
75321;DHT22;68337;52.196;5.660;2023-05-07T10:34:33;18.40;99.90
75321;DHT22;68337;52.196;5.660;2023-05-07T10:37:00;18.40;99.90
75321;DHT22;68337;52.196;5.660;2023-05-07T10:39:27;18.40;99.90
75321;DHT22;68337;52.196;5.660;2023-05-07T10:41:52;18.60;99.90
75321;DHT22;68337;52.196;5.660;2023-05-07T10:44:29;18.60;99.90
75321;DHT22;68337;52.196;5.660;2023-05-07T10:47:08;18.80;99.90
75321;DHT22;68337;52.196;5.660;2023-05-07T10:52:16;19.10;99.90
75321;DHT22;68337;52.196;5.660;2023-05-07T10:54:43;19.20;99.90
75321;DHT22;68337;52.196;5.660;2023-05-07T10:59:57;19.60;99.90
75321;DHT22;68337;52.196;5.660;2023-05-07T11:02:23;20.10;99.90
75321;DHT22;68337;52.196;5.660;2023-05-07T11:05:22;20.60;99.90
75321;DHT22;68337;52.196;5.660;2023-05-07T11:07:55;21.00;99.90
75321;DHT22;68337;52.196;5.660;2023-05-07T11:10:22;21.50;99.90
75321;DHT22;68337;52.196;5.660;2023-05-07T11:12:52;21.50;99.90
75321;DHT22;68337;52.196;5.660;2023-05-07T11:15:39;21.40;99.90
75321;DHT22;68337;52.196;5.660;2023-05-07T11:18:05;21.60;99.90
75321;DHT22;68337;52.196;5.660;2023-05-07T11:26:06;21.60;99.90
75321;DHT22;68337;52.196;5.660;2023-05-07T11:28:37;21.60;99.90
75321;DHT22;68337;52.196;5.660;2023-05-07T11:31:03;21.60;99.90
75321;DHT22;68337;52.196;5.660;2023-05-07T11:33:30;21.50;99.90
75321;DHT22;68337;52.196;5.660;2023-05-07T11:35:56;21.30;99.90
75321;DHT22;68337;52.196;5.660;2023-05-07T11:38:22;21.40;99.90
75321;DHT22;68337;52.196;5.660;2023-05-07T11:40:58;21.40;99.90
75321;DHT22;68337;52.196;5.660;2023-05-07T11:43:29;21.50;99.90
75321;DHT22;68337;52.196;5.660;2023-05-07T11:45:58;21.60;99.90
75321;DHT22;68337;52.196;5.660;2023-05-07T11:48:29;21.70;99.90
75321;DHT22;68337;52.196;5.660;2023-05-07T11:53:28;21.90;99.90
75321;DHT22;68337;52.196;5.660;2023-05-07T11:56:00;21.60;99.90
75321;DHT22;68337;52.196;5.660;2023-05-07T11:58:26;21.50;99.90
75321;DHT22;68337;52.196;5.660;2023-05-07T12:00:53;21.60;99.90
75321;DHT22;68337;52.196;5.660;2023-05-07T12:03:19;21.40;99.90
75321;DHT22;68337;52.196;5.660;2023-05-07T12:05:46;21.50;99.90
75321;DHT22;68337;52.196;5.660;2023-05-07T12:08:18;21.60;99.90
75321;DHT22;68337;52.196;5.660;2023-05-07T12:10:45;21.80;99.90
75321;DHT22;68337;52.196;5.660;2023-05-07T12:13:21;21.90;99.90
75321;DHT22;68337;52.196;5.660;2023-05-07T12:15:54;21.80;99.90
75321;DHT22;68337;52.196;5.660;2023-05-07T12:18:21;21.90;99.90
75321;DHT22;68337;52.196;5.660;2023-05-07T12:20:49;21.80;99.90
75321;DHT22;68337;52.196;5.660;2023-05-07T12:23:16;21.90;99.90
75321;DHT22;68337;52.196;5.660;2023-05-07T12:25:43;21.70;99.90
75321;DHT22;68337;52.196;5.660;2023-05-07T12:28:17;21.70;99.90
75321;DHT22;68337;52.196;5.660;2023-05-07T12:30:44;21.40;99.90
75321;DHT22;68337;52.196;5.660;2023-05-07T12:33:14;21.60;99.90
75321;DHT22;68337;52.196;5.660;2023-05-07T12:35:44;21.60;99.90
75321;DHT22;68337;52.196;5.660;2023-05-07T12:38:14;21.70;99.90
75321;DHT22;68337;52.196;5.660;2023-05-07T12:40:42;21.70;99.90
75321;DHT22;68337;52.196;5.660;2023-05-07T12:43:23;21.80;99.90
75321;DHT22;68337;52.196;5.660;2023-05-07T12:45:50;22.10;99.90
75321;DHT22;68337;52.196;5.660;2023-05-07T12:48:17;22.40;99.90
75321;DHT22;68337;52.196;5.660;2023-05-07T12:50:43;22.40;99.90
75321;DHT22;68337;52.196;5.660;2023-05-07T12:53:11;22.30;99.90
75321;DHT22;68337;52.196;5.660;2023-05-07T12:55:46;22.40;99.90
75321;DHT22;68337;52.196;5.660;2023-05-07T12:58:20;22.60;99.90
75321;DHT22;68337;52.196;5.660;2023-05-07T13:00:51;22.60;99.90
75321;DHT22;68337;52.196;5.660;2023-05-07T13:03:28;22.90;99.90
75321;DHT22;68337;52.196;5.660;2023-05-07T13:06:04;23.20;99.90
75321;DHT22;68337;52.196;5.660;2023-05-07T13:08:38;23.20;99.90
75321;DHT22;68337;52.196;5.660;2023-05-07T13:11:11;23.50;99.90
75321;DHT22;68337;52.196;5.660;2023-05-07T13:13:39;23.80;99.90
75321;DHT22;68337;52.196;5.660;2023-05-07T13:16:07;23.40;99.90
75321;DHT22;68337;52.196;5.660;2023-05-07T13:18:33;23.40;99.90
75321;DHT22;68337;52.196;5.660;2023-05-07T13:21:00;23.20;99.90
75321;DHT22;68337;52.196;5.660;2023-05-07T13:23:26;23.30;99.90
75321;DHT22;68337;52.196;5.660;2023-05-07T13:25:52;22.90;99.90
75321;DHT22;68337;52.196;5.660;2023-05-07T13:28:22;22.70;99.90
75321;DHT22;68337;52.196;5.660;2023-05-07T13:30:48;22.30;99.90
75321;DHT22;68337;52.196;5.660;2023-05-07T13:33:14;22.10;99.90
75321;DHT22;68337;52.196;5.660;2023-05-07T13:35:41;22.40;99.90
75321;DHT22;68337;52.196;5.660;2023-05-07T13:38:07;22.60;99.90
75321;DHT22;68337;52.196;5.660;2023-05-07T13:40:33;22.90;99.90
75321;DHT22;68337;52.196;5.660;2023-05-07T13:42:59;23.00;99.90
75321;DHT22;68337;52.196;5.660;2023-05-07T13:45:30;22.90;99.90
75321;DHT22;68337;52.196;5.660;2023-05-07T13:47:56;22.90;99.90
75321;DHT22;68337;52.196;5.660;2023-05-07T13:50:22;23.10;99.90
75321;DHT22;68337;52.196;5.660;2023-05-07T13:52:48;22.60;99.90
75321;DHT22;68337;52.196;5.660;2023-05-07T13:55:17;22.40;99.90
75321;DHT22;68337;52.196;5.660;2023-05-07T13:57:43;22.60;99.90
75321;DHT22;68337;52.196;5.660;2023-05-07T14:00:10;22.70;99.90
75321;DHT22;68337;52.196;5.660;2023-05-07T14:02:36;22.40;99.90
75321;DHT22;68337;52.196;5.660;2023-05-07T14:05:01;22.60;99.90
75321;DHT22;68337;52.196;5.660;2023-05-07T14:07:27;22.50;99.90
75321;DHT22;68337;52.196;5.660;2023-05-07T14:09:54;22.00;99.90
75321;DHT22;68337;52.196;5.660;2023-05-07T14:12:20;22.00;99.90
75321;DHT22;68337;52.196;5.660;2023-05-07T14:14:46;21.70;99.90
75321;DHT22;68337;52.196;5.660;2023-05-07T14:17:12;21.60;99.90
75321;DHT22;68337;52.196;5.660;2023-05-07T14:19:38;21.30;99.90
75321;DHT22;68337;52.196;5.660;2023-05-07T14:22:04;21.40;99.90
75321;DHT22;68337;52.196;5.660;2023-05-07T14:24:29;21.10;99.90
75321;DHT22;68337;52.196;5.660;2023-05-07T14:26:55;21.00;99.90
75321;DHT22;68337;52.196;5.660;2023-05-07T14:29:21;20.80;99.90
75321;DHT22;68337;52.196;5.660;2023-05-07T14:31:48;20.80;99.90
75321;DHT22;68337;52.196;5.660;2023-05-07T14:34:13;21.20;99.90
75321;DHT22;68337;52.196;5.660;2023-05-07T14:36:39;21.00;99.90
75321;DHT22;68337;52.196;5.660;2023-05-07T14:39:05;20.80;99.90
75321;DHT22;68337;52.196;5.660;2023-05-07T14:41:31;20.80;99.90
75321;DHT22;68337;52.196;5.660;2023-05-07T14:43:58;20.80;99.90
75321;DHT22;68337;52.196;5.660;2023-05-07T14:46:24;20.70;99.90
75321;DHT22;68337;52.196;5.660;2023-05-07T14:48:51;20.70;99.90
75321;DHT22;68337;52.196;5.660;2023-05-07T14:51:16;20.50;99.90
75321;DHT22;68337;52.196;5.660;2023-05-07T14:53:42;20.60;99.90
75321;DHT22;68337;52.196;5.660;2023-05-07T14:56:08;20.20;99.90
75321;DHT22;68337;52.196;5.660;2023-05-07T14:58:34;20.40;99.90
75321;DHT22;68337;52.196;5.660;2023-05-07T15:01:00;20.40;99.90
75321;DHT22;68337;52.196;5.660;2023-05-07T15:03:27;20.20;99.90
75321;DHT22;68337;52.196;5.660;2023-05-07T15:05:52;19.90;99.90
75321;DHT22;68337;52.196;5.660;2023-05-07T15:08:18;19.80;99.90
75321;DHT22;68337;52.196;5.660;2023-05-07T15:10:44;19.60;99.90
75321;DHT22;68337;52.196;5.660;2023-05-07T15:13:11;19.40;99.90
75321;DHT22;68337;52.196;5.660;2023-05-07T15:15:38;19.50;99.90
75321;DHT22;68337;52.196;5.660;2023-05-07T15:18:04;19.70;99.90
75321;DHT22;68337;52.196;5.660;2023-05-07T15:20:30;19.70;99.90
75321;DHT22;68337;52.196;5.660;2023-05-07T15:22:56;19.70;99.90
75321;DHT22;68337;52.196;5.660;2023-05-07T15:25:22;19.50;99.90
75321;DHT22;68337;52.196;5.660;2023-05-07T15:27:48;19.50;99.90
75321;DHT22;68337;52.196;5.660;2023-05-07T15:30:14;19.50;99.90
75321;DHT22;68337;52.196;5.660;2023-05-07T15:32:41;19.50;99.90
75321;DHT22;68337;52.196;5.660;2023-05-07T15:35:07;19.40;99.90
75321;DHT22;68337;52.196;5.660;2023-05-07T15:37:34;19.30;99.90
75321;DHT22;68337;52.196;5.660;2023-05-07T15:40:00;19.30;99.90
75321;DHT22;68337;52.196;5.660;2023-05-07T15:42:27;19.30;99.90
75321;DHT22;68337;52.196;5.660;2023-05-07T15:44:53;19.40;99.90
75321;DHT22;68337;52.196;5.660;2023-05-07T15:47:19;19.40;99.90